sensor_id;sensor_type;location;lat;lon;timestamp;pressure;altitude;pressure_sealevel;temperature
70050;BMP180;57391;51.306;22.680;2023-12-20T00:01:35;98965.00;;;6.60
70050;BMP180;57391;51.306;22.680;2023-12-20T00:03:37;98968.40;;;6.60
70050;BMP180;57391;51.306;22.680;2023-12-20T00:05:39;98972.00;;;6.60
70050;BMP180;57391;51.306;22.680;2023-12-20T00:07:42;98967.60;;;6.52
70050;BMP180;57391;51.306;22.680;2023-12-20T00:09:44;98966.40;;;6.50
70050;BMP180;57391;51.306;22.680;2023-12-20T00:11:46;98966.40;;;6.50
70050;BMP180;57391;51.306;22.680;2023-12-20T00:13:48;98968.00;;;6.50
70050;BMP180;57391;51.306;22.680;2023-12-20T00:15:49;98956.80;;;6.44
70050;BMP180;57391;51.306;22.680;2023-12-20T00:17:51;98960.60;;;6.40
70050;BMP180;57391;51.306;22.680;2023-12-20T00:19:53;98958.60;;;6.40
70050;BMP180;57391;51.306;22.680;2023-12-20T00:21:55;98961.20;;;6.40
70050;BMP180;57391;51.306;22.680;2023-12-20T00:23:56;98961.80;;;6.30
70050;BMP180;57391;51.306;22.680;2023-12-20T00:25:58;98961.60;;;6.30
70050;BMP180;57391;51.306;22.680;2023-12-20T00:28:00;98962.40;;;6.30
70050;BMP180;57391;51.306;22.680;2023-12-20T00:30:02;98963.00;;;6.30
70050;BMP180;57391;51.306;22.680;2023-12-20T00:32:04;98961.00;;;6.26
70050;BMP180;57391;51.306;22.680;2023-12-20T00:34:06;98961.00;;;6.20
70050;BMP180;57391;51.306;22.680;2023-12-20T00:36:08;98961.20;;;6.20
70050;BMP180;57391;51.306;22.680;2023-12-20T00:38:09;98959.60;;;6.20
70050;BMP180;57391;51.306;22.680;2023-12-20T00:40:13;98958.60;;;6.20
70050;BMP180;57391;51.306;22.680;2023-12-20T00:42:15;98956.40;;;6.20
70050;BMP180;57391;51.306;22.680;2023-12-20T00:44:16;98958.80;;;6.20
70050;BMP180;57391;51.306;22.680;2023-12-20T00:46:18;98959.60;;;6.10
70050;BMP180;57391;51.306;22.680;2023-12-20T00:48:21;98952.20;;;6.10
70050;BMP180;57391;51.306;22.680;2023-12-20T00:50:23;98951.20;;;6.10
70050;BMP180;57391;51.306;22.680;2023-12-20T00:52:25;98950.40;;;6.10
70050;BMP180;57391;51.306;22.680;2023-12-20T00:54:26;98952.00;;;6.10
70050;BMP180;57391;51.306;22.680;2023-12-20T00:56:28;98954.20;;;6.10
70050;BMP180;57391;51.306;22.680;2023-12-20T00:58:30;98953.00;;;6.06
70050;BMP180;57391;51.306;22.680;2023-12-20T01:00:32;98944.20;;;6.00
70050;BMP180;57391;51.306;22.680;2023-12-20T01:02:34;98938.80;;;6.00
70050;BMP180;57391;51.306;22.680;2023-12-20T01:04:36;98932.00;;;6.00
70050;BMP180;57391;51.306;22.680;2023-12-20T01:06:38;98932.00;;;6.00
70050;BMP180;57391;51.306;22.680;2023-12-20T01:08:40;98923.80;;;6.00
70050;BMP180;57391;51.306;22.680;2023-12-20T01:10:41;98920.60;;;6.00
70050;BMP180;57391;51.306;22.680;2023-12-20T01:12:43;98919.80;;;6.00
70050;BMP180;57391;51.306;22.680;2023-12-20T01:14:46;98918.40;;;6.00
70050;BMP180;57391;51.306;22.680;2023-12-20T01:16:47;98912.60;;;5.98
70050;BMP180;57391;51.306;22.680;2023-12-20T01:18:49;98908.80;;;5.94
70050;BMP180;57391;51.306;22.680;2023-12-20T01:20:51;98899.80;;;5.92
70050;BMP180;57391;51.306;22.680;2023-12-20T01:22:53;98897.60;;;5.90
70050;BMP180;57391;51.306;22.680;2023-12-20T01:24:54;98894.40;;;5.90
70050;BMP180;57391;51.306;22.680;2023-12-20T01:26:57;98893.60;;;5.88
70050;BMP180;57391;51.306;22.680;2023-12-20T01:28:59;98889.80;;;5.80
70050;BMP180;57391;51.306;22.680;2023-12-20T01:31:01;98886.40;;;5.80
70050;BMP180;57391;51.306;22.680;2023-12-20T01:33:03;98884.40;;;5.80
70050;BMP180;57391;51.306;22.680;2023-12-20T01:35:05;98873.80;;;5.80
70050;BMP180;57391;51.306;22.680;2023-12-20T01:37:06;98872.60;;;5.80
70050;BMP180;57391;51.306;22.680;2023-12-20T01:39:08;98872.40;;;5.80
70050;BMP180;57391;51.306;22.680;2023-12-20T01:41:10;98879.80;;;5.80
70050;BMP180;57391;51.306;22.680;2023-12-20T01:43:12;98881.60;;;5.80
70050;BMP180;57391;51.306;22.680;2023-12-20T01:45:14;98876.80;;;5.80
70050;BMP180;57391;51.306;22.680;2023-12-20T01:47:16;98879.80;;;5.74
70050;BMP180;57391;51.306;22.680;2023-12-20T01:49:18;98881.80;;;5.72
70050;BMP180;57391;51.306;22.680;2023-12-20T01:51:21;98874.40;;;5.70
70050;BMP180;57391;51.306;22.680;2023-12-20T01:53:25;98869.80;;;5.70
70050;BMP180;57391;51.306;22.680;2023-12-20T01:55:29;98865.20;;;5.70
70050;BMP180;57391;51.306;22.680;2023-12-20T01:57:33;98860.80;;;5.70
70050;BMP180;57391;51.306;22.680;2023-12-20T01:59:35;98860.20;;;5.70
70050;BMP180;57391;51.306;22.680;2023-12-20T02:01:37;98856.00;;;5.70
70050;BMP180;57391;51.306;22.680;2023-12-20T02:03:42;98852.60;;;5.70
70050;BMP180;57391;51.306;22.680;2023-12-20T02:05:45;98845.60;;;5.70
70050;BMP180;57391;51.306;22.680;2023-12-20T02:07:48;98847.00;;;5.66
70050;BMP180;57391;51.306;22.680;2023-12-20T02:09:50;98843.40;;;5.60
70050;BMP180;57391;51.306;22.680;2023-12-20T02:11:52;98843.00;;;5.60
70050;BMP180;57391;51.306;22.680;2023-12-20T02:13:54;98839.40;;;5.60
70050;BMP180;57391;51.306;22.680;2023-12-20T02:15:56;98836.80;;;5.60
70050;BMP180;57391;51.306;22.680;2023-12-20T02:17:59;98837.40;;;5.60
70050;BMP180;57391;51.306;22.680;2023-12-20T02:20:00;98832.60;;;5.58
70050;BMP180;57391;51.306;22.680;2023-12-20T02:22:10;98824.20;;;5.50
70050;BMP180;57391;51.306;22.680;2023-12-20T02:24:12;98822.80;;;5.50
70050;BMP180;57391;51.306;22.680;2023-12-20T02:26:14;98818.40;;;5.50
70050;BMP180;57391;51.306;22.680;2023-12-20T02:28:16;98818.00;;;5.50
70050;BMP180;57391;51.306;22.680;2023-12-20T02:30:18;98808.80;;;5.50
70050;BMP180;57391;51.306;22.680;2023-12-20T02:32:21;98814.20;;;5.48
70050;BMP180;57391;51.306;22.680;2023-12-20T02:34:24;98812.60;;;5.44
70050;BMP180;57391;51.306;22.680;2023-12-20T02:36:26;98814.40;;;5.40
70050;BMP180;57391;51.306;22.680;2023-12-20T02:38:27;98808.20;;;5.40
70050;BMP180;57391;51.306;22.680;2023-12-20T02:40:29;98803.80;;;5.40
70050;BMP180;57391;51.306;22.680;2023-12-20T02:42:31;98802.60;;;5.40
70050;BMP180;57391;51.306;22.680;2023-12-20T02:44:32;98800.20;;;5.40
70050;BMP180;57391;51.306;22.680;2023-12-20T02:46:34;98795.20;;;5.40
70050;BMP180;57391;51.306;22.680;2023-12-20T02:48:36;98791.80;;;5.40
70050;BMP180;57391;51.306;22.680;2023-12-20T02:50:38;98791.80;;;5.40
70050;BMP180;57391;51.306;22.680;2023-12-20T02:52:39;98785.40;;;5.40
70050;BMP180;57391;51.306;22.680;2023-12-20T02:54:41;98789.40;;;5.40
70050;BMP180;57391;51.306;22.680;2023-12-20T02:56:43;98785.80;;;5.40
70050;BMP180;57391;51.306;22.680;2023-12-20T02:58:45;98776.60;;;5.38
70050;BMP180;57391;51.306;22.680;2023-12-20T03:00:46;98776.60;;;5.38
70050;BMP180;57391;51.306;22.680;2023-12-20T03:02:48;98779.60;;;5.40
70050;BMP180;57391;51.306;22.680;2023-12-20T03:04:50;98773.40;;;5.36
70050;BMP180;57391;51.306;22.680;2023-12-20T03:06:52;98770.60;;;5.32
70050;BMP180;57391;51.306;22.680;2023-12-20T03:08:53;98771.60;;;5.34
70050;BMP180;57391;51.306;22.680;2023-12-20T03:10:55;98773.20;;;5.32
70050;BMP180;57391;51.306;22.680;2023-12-20T03:12:57;98770.20;;;5.30
70050;BMP180;57391;51.306;22.680;2023-12-20T03:14:59;98756.20;;;5.30
70050;BMP180;57391;51.306;22.680;2023-12-20T03:17:00;98768.00;;;5.30
70050;BMP180;57391;51.306;22.680;2023-12-20T03:19:02;98769.20;;;5.30
70050;BMP180;57391;51.306;22.680;2023-12-20T03:21:05;98769.00;;;5.30
70050;BMP180;57391;51.306;22.680;2023-12-20T03:23:07;98772.40;;;5.30
70050;BMP180;57391;51.306;22.680;2023-12-20T03:25:09;98772.40;;;5.30
70050;BMP180;57391;51.306;22.680;2023-12-20T03:27:11;98769.20;;;5.30
70050;BMP180;57391;51.306;22.680;2023-12-20T03:29:13;98768.20;;;5.30
70050;BMP180;57391;51.306;22.680;2023-12-20T03:31:14;98772.20;;;5.34
70050;BMP180;57391;51.306;22.680;2023-12-20T03:33:16;98775.40;;;5.36
70050;BMP180;57391;51.306;22.680;2023-12-20T03:35:18;98774.40;;;5.40
70050;BMP180;57391;51.306;22.680;2023-12-20T03:37:21;98766.60;;;5.40
70050;BMP180;57391;51.306;22.680;2023-12-20T03:39:23;98769.20;;;5.40
70050;BMP180;57391;51.306;22.680;2023-12-20T03:41:25;98765.60;;;5.40
70050;BMP180;57391;51.306;22.680;2023-12-20T03:43:27;98767.40;;;5.40
70050;BMP180;57391;51.306;22.680;2023-12-20T03:45:29;98765.20;;;5.38
70050;BMP180;57391;51.306;22.680;2023-12-20T03:47:30;98763.80;;;5.38
70050;BMP180;57391;51.306;22.680;2023-12-20T03:49:32;98755.60;;;5.40
70050;BMP180;57391;51.306;22.680;2023-12-20T03:51:34;98753.80;;;5.40
70050;BMP180;57391;51.306;22.680;2023-12-20T03:53:36;98739.80;;;5.38
70050;BMP180;57391;51.306;22.680;2023-12-20T03:55:38;98743.80;;;5.40
70050;BMP180;57391;51.306;22.680;2023-12-20T03:57:39;98750.60;;;5.40
70050;BMP180;57391;51.306;22.680;2023-12-20T03:59:41;98751.00;;;5.40
70050;BMP180;57391;51.306;22.680;2023-12-20T04:01:44;98755.40;;;5.40
70050;BMP180;57391;51.306;22.680;2023-12-20T04:03:48;98757.40;;;5.40
70050;BMP180;57391;51.306;22.680;2023-12-20T04:05:50;98754.40;;;5.40
70050;BMP180;57391;51.306;22.680;2023-12-20T04:07:52;98763.20;;;5.40
70050;BMP180;57391;51.306;22.680;2023-12-20T04:09:54;98762.60;;;5.40
70050;BMP180;57391;51.306;22.680;2023-12-20T04:11:55;98773.00;;;5.40
70050;BMP180;57391;51.306;22.680;2023-12-20T04:13:57;98776.60;;;5.40
70050;BMP180;57391;51.306;22.680;2023-12-20T04:15:59;98774.40;;;5.40
70050;BMP180;57391;51.306;22.680;2023-12-20T04:18:01;98778.80;;;5.40
70050;BMP180;57391;51.306;22.680;2023-12-20T04:20:03;98783.20;;;5.40
70050;BMP180;57391;51.306;22.680;2023-12-20T04:22:05;98792.80;;;5.40
70050;BMP180;57391;51.306;22.680;2023-12-20T04:24:07;98790.60;;;5.40
70050;BMP180;57391;51.306;22.680;2023-12-20T04:26:10;98794.20;;;5.40
70050;BMP180;57391;51.306;22.680;2023-12-20T04:28:12;98796.20;;;5.40
70050;BMP180;57391;51.306;22.680;2023-12-20T04:30:14;98789.40;;;5.40
70050;BMP180;57391;51.306;22.680;2023-12-20T04:32:15;98791.80;;;5.40
70050;BMP180;57391;51.306;22.680;2023-12-20T04:34:18;98790.00;;;5.40
70050;BMP180;57391;51.306;22.680;2023-12-20T04:36:19;98787.40;;;5.40
70050;BMP180;57391;51.306;22.680;2023-12-20T04:38:21;98782.40;;;5.40
70050;BMP180;57391;51.306;22.680;2023-12-20T04:40:23;98783.80;;;5.40
70050;BMP180;57391;51.306;22.680;2023-12-20T04:42:25;98779.40;;;5.40
70050;BMP180;57391;51.306;22.680;2023-12-20T04:44:26;98777.00;;;5.40
70050;BMP180;57391;51.306;22.680;2023-12-20T04:46:28;98779.80;;;5.40
70050;BMP180;57391;51.306;22.680;2023-12-20T04:48:30;98781.20;;;5.40
70050;BMP180;57391;51.306;22.680;2023-12-20T04:50:32;98776.40;;;5.36
70050;BMP180;57391;51.306;22.680;2023-12-20T04:52:34;98776.80;;;5.30
70050;BMP180;57391;51.306;22.680;2023-12-20T04:54:36;98770.80;;;5.30
70050;BMP180;57391;51.306;22.680;2023-12-20T04:56:38;98772.00;;;5.30
70050;BMP180;57391;51.306;22.680;2023-12-20T04:58:41;98775.00;;;5.28
70050;BMP180;57391;51.306;22.680;2023-12-20T05:00:43;98769.00;;;5.20
70050;BMP180;57391;51.306;22.680;2023-12-20T05:02:45;98770.40;;;5.20
70050;BMP180;57391;51.306;22.680;2023-12-20T05:04:47;98768.20;;;5.20
70050;BMP180;57391;51.306;22.680;2023-12-20T05:06:49;98769.00;;;5.14
70050;BMP180;57391;51.306;22.680;2023-12-20T05:08:51;98775.60;;;5.10
70050;BMP180;57391;51.306;22.680;2023-12-20T05:10:54;98781.60;;;5.10
70050;BMP180;57391;51.306;22.680;2023-12-20T05:12:56;98775.00;;;5.10
70050;BMP180;57391;51.306;22.680;2023-12-20T05:14:58;98779.60;;;5.10
70050;BMP180;57391;51.306;22.680;2023-12-20T05:17:00;98775.20;;;5.02
70050;BMP180;57391;51.306;22.680;2023-12-20T05:19:01;98774.80;;;5.00
70050;BMP180;57391;51.306;22.680;2023-12-20T05:21:08;98770.60;;;5.00
70050;BMP180;57391;51.306;22.680;2023-12-20T05:23:10;98766.00;;;5.00
70050;BMP180;57391;51.306;22.680;2023-12-20T05:25:13;98769.20;;;5.00
70050;BMP180;57391;51.306;22.680;2023-12-20T05:27:15;98762.20;;;5.00
70050;BMP180;57391;51.306;22.680;2023-12-20T05:29:16;98754.80;;;5.00
70050;BMP180;57391;51.306;22.680;2023-12-20T05:31:18;98749.00;;;5.00
70050;BMP180;57391;51.306;22.680;2023-12-20T05:33:20;98748.80;;;5.00
70050;BMP180;57391;51.306;22.680;2023-12-20T05:35:22;98752.20;;;5.00
70050;BMP180;57391;51.306;22.680;2023-12-20T05:37:25;98750.00;;;4.98
70050;BMP180;57391;51.306;22.680;2023-12-20T05:39:27;98751.20;;;5.00
70050;BMP180;57391;51.306;22.680;2023-12-20T05:41:29;98745.20;;;5.00
70050;BMP180;57391;51.306;22.680;2023-12-20T05:43:31;98748.40;;;5.00
70050;BMP180;57391;51.306;22.680;2023-12-20T05:45:32;98753.00;;;5.00
70050;BMP180;57391;51.306;22.680;2023-12-20T05:47:34;98747.60;;;5.00
70050;BMP180;57391;51.306;22.680;2023-12-20T05:49:36;98747.00;;;5.00
70050;BMP180;57391;51.306;22.680;2023-12-20T05:51:38;98749.60;;;5.00
70050;BMP180;57391;51.306;22.680;2023-12-20T05:53:40;98744.40;;;5.00
70050;BMP180;57391;51.306;22.680;2023-12-20T05:55:41;98748.80;;;5.00
70050;BMP180;57391;51.306;22.680;2023-12-20T05:57:43;98746.40;;;5.00
70050;BMP180;57391;51.306;22.680;2023-12-20T05:59:45;98746.40;;;5.04
70050;BMP180;57391;51.306;22.680;2023-12-20T06:01:47;98745.20;;;5.10
70050;BMP180;57391;51.306;22.680;2023-12-20T06:03:49;98751.60;;;5.10
70050;BMP180;57391;51.306;22.680;2023-12-20T06:05:51;98747.80;;;5.10
70050;BMP180;57391;51.306;22.680;2023-12-20T06:07:53;98750.00;;;5.14
70050;BMP180;57391;51.306;22.680;2023-12-20T06:09:56;98748.20;;;5.20
70050;BMP180;57391;51.306;22.680;2023-12-20T06:11:58;98750.40;;;5.20
70050;BMP180;57391;51.306;22.680;2023-12-20T06:13:59;98747.20;;;5.20
70050;BMP180;57391;51.306;22.680;2023-12-20T06:16:01;98748.20;;;5.24
70050;BMP180;57391;51.306;22.680;2023-12-20T06:18:08;98745.00;;;5.30
70050;BMP180;57391;51.306;22.680;2023-12-20T06:20:13;98744.60;;;5.30
70050;BMP180;57391;51.306;22.680;2023-12-20T06:22:16;98739.20;;;5.30
70050;BMP180;57391;51.306;22.680;2023-12-20T06:24:18;98735.00;;;5.30
70050;BMP180;57391;51.306;22.680;2023-12-20T06:26:20;98735.40;;;5.30
70050;BMP180;57391;51.306;22.680;2023-12-20T06:28:23;98742.60;;;5.30
70050;BMP180;57391;51.306;22.680;2023-12-20T06:30:25;98736.20;;;5.38
70050;BMP180;57391;51.306;22.680;2023-12-20T06:32:28;98741.60;;;5.38
70050;BMP180;57391;51.306;22.680;2023-12-20T06:34:30;98742.80;;;5.40
70050;BMP180;57391;51.306;22.680;2023-12-20T06:36:32;98744.40;;;5.40
70050;BMP180;57391;51.306;22.680;2023-12-20T06:38:34;98748.00;;;5.40
70050;BMP180;57391;51.306;22.680;2023-12-20T06:40:36;98745.80;;;5.42
70050;BMP180;57391;51.306;22.680;2023-12-20T06:42:39;98745.60;;;5.46
70050;BMP180;57391;51.306;22.680;2023-12-20T06:44:40;98752.20;;;5.50
70050;BMP180;57391;51.306;22.680;2023-12-20T06:46:43;98751.40;;;5.50
70050;BMP180;57391;51.306;22.680;2023-12-20T06:48:45;98747.20;;;5.50
70050;BMP180;57391;51.306;22.680;2023-12-20T06:50:47;98748.20;;;5.50
70050;BMP180;57391;51.306;22.680;2023-12-20T06:52:49;98750.40;;;5.50
70050;BMP180;57391;51.306;22.680;2023-12-20T06:54:51;98747.40;;;5.50
70050;BMP180;57391;51.306;22.680;2023-12-20T06:56:53;98749.20;;;5.50
70050;BMP180;57391;51.306;22.680;2023-12-20T06:58:54;98750.00;;;5.50
70050;BMP180;57391;51.306;22.680;2023-12-20T07:00:56;98746.80;;;5.50
70050;BMP180;57391;51.306;22.680;2023-12-20T07:02:58;98746.00;;;5.50
70050;BMP180;57391;51.306;22.680;2023-12-20T07:05:01;98744.00;;;5.50
70050;BMP180;57391;51.306;22.680;2023-12-20T07:07:03;98746.20;;;5.52
70050;BMP180;57391;51.306;22.680;2023-12-20T07:09:05;98742.20;;;5.54
70050;BMP180;57391;51.306;22.680;2023-12-20T07:11:10;98746.00;;;5.58
70050;BMP180;57391;51.306;22.680;2023-12-20T07:13:13;98746.60;;;5.60
70050;BMP180;57391;51.306;22.680;2023-12-20T07:15:15;98746.60;;;5.60
70050;BMP180;57391;51.306;22.680;2023-12-20T07:17:18;98739.60;;;5.60
70050;BMP180;57391;51.306;22.680;2023-12-20T07:19:23;98740.20;;;5.60
70050;BMP180;57391;51.306;22.680;2023-12-20T07:21:25;98739.80;;;5.60
70050;BMP180;57391;51.306;22.680;2023-12-20T07:23:27;98743.00;;;5.60
70050;BMP180;57391;51.306;22.680;2023-12-20T07:25:29;98743.80;;;5.60
70050;BMP180;57391;51.306;22.680;2023-12-20T07:27:34;98741.60;;;5.60
70050;BMP180;57391;51.306;22.680;2023-12-20T07:29:39;98741.20;;;5.60
70050;BMP180;57391;51.306;22.680;2023-12-20T07:31:41;98745.20;;;5.60
70050;BMP180;57391;51.306;22.680;2023-12-20T07:33:43;98746.60;;;5.60
70050;BMP180;57391;51.306;22.680;2023-12-20T07:35:44;98744.20;;;5.60
70050;BMP180;57391;51.306;22.680;2023-12-20T07:37:46;98742.40;;;5.60
70050;BMP180;57391;51.306;22.680;2023-12-20T07:39:48;98739.80;;;5.60
70050;BMP180;57391;51.306;22.680;2023-12-20T07:41:50;98744.40;;;5.60
70050;BMP180;57391;51.306;22.680;2023-12-20T07:43:52;98743.00;;;5.60
70050;BMP180;57391;51.306;22.680;2023-12-20T07:45:55;98745.00;;;5.60
70050;BMP180;57391;51.306;22.680;2023-12-20T07:47:56;98742.40;;;5.58
70050;BMP180;57391;51.306;22.680;2023-12-20T07:49:58;98737.80;;;5.52
70050;BMP180;57391;51.306;22.680;2023-12-20T07:52:00;98739.40;;;5.50
70050;BMP180;57391;51.306;22.680;2023-12-20T07:54:02;98741.00;;;5.50
70050;BMP180;57391;51.306;22.680;2023-12-20T07:56:18;98737.40;;;5.50
70050;BMP180;57391;51.306;22.680;2023-12-20T07:58:21;98735.80;;;5.50
70050;BMP180;57391;51.306;22.680;2023-12-20T08:00:23;98731.00;;;5.50
70050;BMP180;57391;51.306;22.680;2023-12-20T08:02:25;98727.80;;;5.50
70050;BMP180;57391;51.306;22.680;2023-12-20T08:04:27;98729.80;;;5.50
70050;BMP180;57391;51.306;22.680;2023-12-20T08:06:29;98728.40;;;5.50
70050;BMP180;57391;51.306;22.680;2023-12-20T08:08:31;98735.20;;;5.50
70050;BMP180;57391;51.306;22.680;2023-12-20T08:10:33;98735.00;;;5.60
70050;BMP180;57391;51.306;22.680;2023-12-20T08:12:34;98735.40;;;5.60
70050;BMP180;57391;51.306;22.680;2023-12-20T08:14:36;98729.00;;;5.60
70050;BMP180;57391;51.306;22.680;2023-12-20T08:16:38;98725.60;;;5.60
70050;BMP180;57391;51.306;22.680;2023-12-20T08:18:40;98726.80;;;5.60
70050;BMP180;57391;51.306;22.680;2023-12-20T08:20:42;98726.60;;;5.60
70050;BMP180;57391;51.306;22.680;2023-12-20T08:22:44;98724.80;;;5.60
70050;BMP180;57391;51.306;22.680;2023-12-20T08:24:46;98729.00;;;5.60
70050;BMP180;57391;51.306;22.680;2023-12-20T08:26:48;98731.00;;;5.60
70050;BMP180;57391;51.306;22.680;2023-12-20T08:28:50;98731.40;;;5.60
70050;BMP180;57391;51.306;22.680;2023-12-20T08:30:54;98732.80;;;5.60
70050;BMP180;57391;51.306;22.680;2023-12-20T08:32:55;98730.20;;;5.60
70050;BMP180;57391;51.306;22.680;2023-12-20T08:34:57;98725.60;;;5.60
70050;BMP180;57391;51.306;22.680;2023-12-20T08:37:00;98728.40;;;5.60
70050;BMP180;57391;51.306;22.680;2023-12-20T08:39:02;98726.80;;;5.60
70050;BMP180;57391;51.306;22.680;2023-12-20T08:41:06;98730.80;;;5.60
70050;BMP180;57391;51.306;22.680;2023-12-20T08:43:08;98729.60;;;5.60
70050;BMP180;57391;51.306;22.680;2023-12-20T08:45:10;98725.20;;;5.60
70050;BMP180;57391;51.306;22.680;2023-12-20T08:47:12;98731.60;;;5.60
70050;BMP180;57391;51.306;22.680;2023-12-20T08:49:17;98729.80;;;5.70
70050;BMP180;57391;51.306;22.680;2023-12-20T08:51:20;98728.20;;;5.70
70050;BMP180;57391;51.306;22.680;2023-12-20T08:53:25;98726.60;;;5.70
70050;BMP180;57391;51.306;22.680;2023-12-20T08:55:28;98733.20;;;5.70
70050;BMP180;57391;51.306;22.680;2023-12-20T08:57:32;98735.20;;;5.70
70050;BMP180;57391;51.306;22.680;2023-12-20T08:59:35;98731.40;;;5.70
70050;BMP180;57391;51.306;22.680;2023-12-20T09:01:37;98728.00;;;5.70
70050;BMP180;57391;51.306;22.680;2023-12-20T09:03:39;98724.00;;;5.70
70050;BMP180;57391;51.306;22.680;2023-12-20T09:05:41;98723.00;;;5.74
70050;BMP180;57391;51.306;22.680;2023-12-20T09:07:43;98716.20;;;5.80
70050;BMP180;57391;51.306;22.680;2023-12-20T09:09:45;98716.80;;;5.80
70050;BMP180;57391;51.306;22.680;2023-12-20T09:11:47;98710.60;;;5.80
70050;BMP180;57391;51.306;22.680;2023-12-20T09:13:51;98711.60;;;5.80
70050;BMP180;57391;51.306;22.680;2023-12-20T09:15:55;98705.40;;;5.80
70050;BMP180;57391;51.306;22.680;2023-12-20T09:17:57;98706.60;;;5.80
70050;BMP180;57391;51.306;22.680;2023-12-20T09:20:00;98702.80;;;5.80
70050;BMP180;57391;51.306;22.680;2023-12-20T09:22:02;98699.20;;;5.80
70050;BMP180;57391;51.306;22.680;2023-12-20T09:24:04;98697.80;;;5.80
70050;BMP180;57391;51.306;22.680;2023-12-20T09:26:06;98694.20;;;5.80
70050;BMP180;57391;51.306;22.680;2023-12-20T09:28:08;98698.00;;;5.80
70050;BMP180;57391;51.306;22.680;2023-12-20T09:30:10;98694.00;;;5.80
70050;BMP180;57391;51.306;22.680;2023-12-20T09:32:12;98695.00;;;5.80
70050;BMP180;57391;51.306;22.680;2023-12-20T09:34:16;98702.20;;;5.80
70050;BMP180;57391;51.306;22.680;2023-12-20T09:36:19;98693.20;;;5.80
70050;BMP180;57391;51.306;22.680;2023-12-20T09:38:20;98685.80;;;5.80
70050;BMP180;57391;51.306;22.680;2023-12-20T09:40:26;98682.60;;;5.80
70050;BMP180;57391;51.306;22.680;2023-12-20T09:42:58;98679.60;;;5.80
70050;BMP180;57391;51.306;22.680;2023-12-20T09:45:02;98682.00;;;5.80
70050;BMP180;57391;51.306;22.680;2023-12-20T09:47:06;98677.60;;;5.80
70050;BMP180;57391;51.306;22.680;2023-12-20T09:49:08;98671.60;;;5.80
70050;BMP180;57391;51.306;22.680;2023-12-20T09:51:10;98676.00;;;5.80
70050;BMP180;57391;51.306;22.680;2023-12-20T09:53:15;98672.80;;;5.84
70050;BMP180;57391;51.306;22.680;2023-12-20T09:55:19;98669.20;;;5.86
70050;BMP180;57391;51.306;22.680;2023-12-20T09:57:21;98669.00;;;5.84
70050;BMP180;57391;51.306;22.680;2023-12-20T09:59:23;98673.60;;;5.90
70050;BMP180;57391;51.306;22.680;2023-12-20T10:01:26;98671.20;;;5.90
70050;BMP180;57391;51.306;22.680;2023-12-20T10:03:31;98662.40;;;5.98
70050;BMP180;57391;51.306;22.680;2023-12-20T10:05:34;98661.40;;;6.00
70050;BMP180;57391;51.306;22.680;2023-12-20T10:07:36;98654.80;;;6.00
70050;BMP180;57391;51.306;22.680;2023-12-20T10:09:38;98657.60;;;6.00
70050;BMP180;57391;51.306;22.680;2023-12-20T10:11:40;98659.60;;;6.00
70050;BMP180;57391;51.306;22.680;2023-12-20T10:13:47;98659.60;;;6.00
70050;BMP180;57391;51.306;22.680;2023-12-20T10:15:50;98657.60;;;6.00
70050;BMP180;57391;51.306;22.680;2023-12-20T10:17:52;98662.60;;;6.00
70050;BMP180;57391;51.306;22.680;2023-12-20T10:19:53;98660.60;;;6.00
70050;BMP180;57391;51.306;22.680;2023-12-20T10:21:55;98662.80;;;6.00
70050;BMP180;57391;51.306;22.680;2023-12-20T10:23:57;98658.20;;;6.00
70050;BMP180;57391;51.306;22.680;2023-12-20T10:26:00;98653.80;;;6.00
70050;BMP180;57391;51.306;22.680;2023-12-20T10:28:15;98651.60;;;6.00
70050;BMP180;57391;51.306;22.680;2023-12-20T10:30:22;98650.80;;;6.00
70050;BMP180;57391;51.306;22.680;2023-12-20T10:32:26;98647.60;;;6.00
70050;BMP180;57391;51.306;22.680;2023-12-20T10:34:29;98646.60;;;6.00
70050;BMP180;57391;51.306;22.680;2023-12-20T10:38:17;98642.20;;;6.00
70050;BMP180;57391;51.306;22.680;2023-12-20T10:40:18;98648.20;;;6.00
70050;BMP180;57391;51.306;22.680;2023-12-20T10:42:22;98645.60;;;6.00
70050;BMP180;57391;51.306;22.680;2023-12-20T10:44:24;98644.00;;;6.00
70050;BMP180;57391;51.306;22.680;2023-12-20T10:46:27;98639.60;;;6.00
70050;BMP180;57391;51.306;22.680;2023-12-20T10:48:32;98638.00;;;6.00
70050;BMP180;57391;51.306;22.680;2023-12-20T10:50:37;98641.20;;;6.00
70050;BMP180;57391;51.306;22.680;2023-12-20T10:52:44;98636.60;;;6.00
70050;BMP180;57391;51.306;22.680;2023-12-20T10:54:47;98636.00;;;6.02
70050;BMP180;57391;51.306;22.680;2023-12-20T10:56:52;98628.40;;;6.04
70050;BMP180;57391;51.306;22.680;2023-12-20T10:58:54;98631.60;;;6.10
70050;BMP180;57391;51.306;22.680;2023-12-20T11:01:01;98628.80;;;6.04
70050;BMP180;57391;51.306;22.680;2023-12-20T11:03:10;98627.80;;;6.10
70050;BMP180;57391;51.306;22.680;2023-12-20T11:07:41;98624.40;;;6.10
70050;BMP180;57391;51.306;22.680;2023-12-20T11:09:59;98619.20;;;6.10
70050;BMP180;57391;51.306;22.680;2023-12-20T11:12:34;98614.40;;;6.10
70050;BMP180;57391;51.306;22.680;2023-12-20T11:14:51;98612.00;;;6.10
70050;BMP180;57391;51.306;22.680;2023-12-20T11:17:26;98602.00;;;6.10
70050;BMP180;57391;51.306;22.680;2023-12-20T11:19:29;98599.80;;;6.10
70050;BMP180;57391;51.306;22.680;2023-12-20T11:21:30;98599.40;;;6.10
70050;BMP180;57391;51.306;22.680;2023-12-20T11:23:33;98594.40;;;6.10
70050;BMP180;57391;51.306;22.680;2023-12-20T11:25:56;98591.60;;;6.10
70050;BMP180;57391;51.306;22.680;2023-12-20T11:28:11;98593.40;;;6.18
70050;BMP180;57391;51.306;22.680;2023-12-20T11:30:14;98587.80;;;6.18
70050;BMP180;57391;51.306;22.680;2023-12-20T11:34:31;98589.60;;;6.10
70050;BMP180;57391;51.306;22.680;2023-12-20T11:36:33;98597.80;;;6.10
70050;BMP180;57391;51.306;22.680;2023-12-20T11:38:36;98601.80;;;6.10
70050;BMP180;57391;51.306;22.680;2023-12-20T11:40:42;98601.80;;;6.10
70050;BMP180;57391;51.306;22.680;2023-12-20T11:42:48;98598.40;;;6.10
70050;BMP180;57391;51.306;22.680;2023-12-20T11:44:50;98598.00;;;6.08
70050;BMP180;57391;51.306;22.680;2023-12-20T11:46:52;98598.20;;;6.08
70050;BMP180;57391;51.306;22.680;2023-12-20T11:48:56;98593.40;;;6.10
70050;BMP180;57391;51.306;22.680;2023-12-20T11:50:58;98593.20;;;6.10
70050;BMP180;57391;51.306;22.680;2023-12-20T11:53:00;98596.60;;;6.10
70050;BMP180;57391;51.306;22.680;2023-12-20T11:55:02;98588.80;;;6.10